createdAt,value
2023-02-16T00:00:00.448Z,33.60
2023-02-16T00:01:00.471Z,32.60
2023-02-16T00:02:00.536Z,32.70
2023-02-16T00:03:00.428Z,32.20
2023-02-16T00:04:00.401Z,32.40
2023-02-16T00:05:00.385Z,32.10
2023-02-16T00:06:00.410Z,32.00
2023-02-16T00:07:00.389Z,32.00
2023-02-16T00:08:00.373Z,32.20
2023-02-16T00:09:00.330Z,32.00
2023-02-16T00:10:00.326Z,32.50
2023-02-16T00:11:00.524Z,31.90
2023-02-16T00:12:00.308Z,32.30
2023-02-16T00:13:00.277Z,31.20
2023-02-16T00:14:00.268Z,31.60
2023-02-16T00:15:00.253Z,31.70
2023-02-16T00:16:00.361Z,32.50
2023-02-16T00:17:00.245Z,31.50
2023-02-16T00:18:00.225Z,31.80
2023-02-16T00:19:00.223Z,31.50
2023-02-16T00:20:00.192Z,32.10
2023-02-16T00:21:00.176Z,31.10
2023-02-16T00:22:00.294Z,30.80
2023-02-16T00:23:00.151Z,31.40
2023-02-16T00:24:00.138Z,30.20
2023-02-16T00:25:00.155Z,31.10
2023-02-16T00:26:00.125Z,31.60
2023-02-16T00:27:00.112Z,30.80
2023-02-16T00:28:00.115Z,32.00
2023-02-16T00:29:00.122Z,31.40
2023-02-16T00:30:00.124Z,30.60
2023-02-16T00:31:00.221Z,31.00
2023-02-16T00:32:00.259Z,31.20
2023-02-16T00:33:00.024Z,31.60
2023-02-16T00:34:00.012Z,32.50
2023-02-16T00:35:00.015Z,32.60
2023-02-16T00:35:59.990Z,33.80
2023-02-16T00:36:59.988Z,34.40
2023-02-16T00:37:59.964Z,33.10
2023-02-16T00:38:59.954Z,34.80
2023-02-16T00:39:59.937Z,35.00
2023-02-16T00:40:59.930Z,34.40
2023-02-16T00:41:59.931Z,34.60
2023-02-16T00:42:59.902Z,35.50
2023-02-16T00:43:59.881Z,34.50
2023-02-16T00:44:59.874Z,34.80
2023-02-16T00:45:59.905Z,35.30
2023-02-16T00:46:59.862Z,34.20
2023-02-16T00:47:59.834Z,35.70
2023-02-16T00:48:59.829Z,35.20
2023-02-16T00:49:59.812Z,35.10
2023-02-16T00:50:59.823Z,35.50
2023-02-16T00:51:59.804Z,36.10
2023-02-16T00:52:59.773Z,35.90
2023-02-16T00:53:59.760Z,35.90
2023-02-16T00:54:59.746Z,36.50
2023-02-16T00:55:59.731Z,35.60
2023-02-16T00:56:59.736Z,37.70
2023-02-16T00:57:59.702Z,37.10
2023-02-16T00:58:59.700Z,35.90
2023-02-16T00:59:59.680Z,36.10
2023-02-16T01:00:59.666Z,35.30
2023-02-16T01:01:59.690Z,35.90
2023-02-16T01:02:59.697Z,36.60
2023-02-16T01:03:59.646Z,37.40
2023-02-16T01:04:59.632Z,38.50
2023-02-16T01:05:59.600Z,40.40
2023-02-16T01:06:59.609Z,40.40
2023-02-16T01:07:59.593Z,39.30
2023-02-16T01:08:59.570Z,47.80
2023-02-16T01:09:59.544Z,42.20
2023-02-16T01:10:59.534Z,43.60
2023-02-16T01:11:59.527Z,42.60
2023-02-16T01:12:59.522Z,44.90
2023-02-16T01:13:59.494Z,46.20
2023-02-16T01:14:59.482Z,40.10
2023-02-16T01:15:59.607Z,39.60
2023-02-16T01:16:59.459Z,47.40
2023-02-16T01:17:59.453Z,47.60
2023-02-16T01:18:59.431Z,43.70
2023-02-16T01:19:59.414Z,46.50
2023-02-16T01:20:59.405Z,45.90
2023-02-16T01:21:59.392Z,46.00
2023-02-16T01:22:59.410Z,50.20
2023-02-16T01:23:59.367Z,52.80
2023-02-16T01:24:59.352Z,52.80
2023-02-16T01:25:59.346Z,51.30
2023-02-16T01:26:59.327Z,44.30
2023-02-16T01:27:59.326Z,45.70
2023-02-16T01:28:59.305Z,37.40
2023-02-16T01:29:59.352Z,43.00
2023-02-16T01:30:59.328Z,45.20
2023-02-16T01:31:59.465Z,44.10
2023-02-16T01:32:59.268Z,42.40
2023-02-16T01:33:59.233Z,45.30
2023-02-16T01:34:59.224Z,44.80
2023-02-16T01:35:59.248Z,44.00
2023-02-16T01:36:59.201Z,44.70
2023-02-16T01:37:59.202Z,43.80
2023-02-16T01:38:59.195Z,52.40
2023-02-16T01:39:59.161Z,47.10
2023-02-16T01:40:59.148Z,52.00
2023-02-16T01:41:59.136Z,46.00
2023-02-16T01:42:59.151Z,61.70
2023-02-16T01:43:59.102Z,57.50
2023-02-16T01:44:59.096Z,48.20
2023-02-16T01:45:59.083Z,52.10
2023-02-16T01:46:59.064Z,52.00
2023-02-16T01:47:59.059Z,53.90
2023-02-16T01:48:59.061Z,49.70
2023-02-16T01:50:00.782Z,42.60
2023-02-16T01:50:59.021Z,43.20
2023-02-16T01:51:59.019Z,49.90
2023-02-16T01:52:58.989Z,50.60
2023-02-16T01:53:58.991Z,45.80
2023-02-16T01:54:59.064Z,46.40
2023-02-16T01:55:58.955Z,51.20
2023-02-16T01:56:58.944Z,50.00
2023-02-16T01:57:58.925Z,49.40
2023-02-16T01:58:58.932Z,51.10
2023-02-16T01:59:58.898Z,58.50
2023-02-16T02:00:58.895Z,54.50
2023-02-16T02:01:58.979Z,58.40
2023-02-16T02:02:58.882Z,57.50
2023-02-16T02:03:58.864Z,52.70
2023-02-16T02:04:58.836Z,54.20
2023-02-16T02:05:58.826Z,57.10
2023-02-16T02:06:58.814Z,49.60
2023-02-16T02:07:58.805Z,43.20
2023-02-16T02:08:58.800Z,44.10
2023-02-16T02:09:58.773Z,43.00
2023-02-16T02:10:58.781Z,44.50
2023-02-16T02:11:58.749Z,45.30
2023-02-16T02:12:58.803Z,48.00
2023-02-16T02:13:58.742Z,46.30
2023-02-16T02:14:58.705Z,42.70
2023-02-16T02:15:58.726Z,41.80
2023-02-16T02:16:58.691Z,43.00
2023-02-16T02:17:58.664Z,44.70
2023-02-16T02:18:58.675Z,44.70
2023-02-16T02:19:58.645Z,44.50
2023-02-16T02:20:58.628Z,49.30
2023-02-16T02:21:58.618Z,48.30
2023-02-16T02:22:58.606Z,52.50
2023-02-16T02:23:58.615Z,46.00
2023-02-16T02:24:58.593Z,46.90
2023-02-16T02:25:58.560Z,47.30
2023-02-16T02:26:58.573Z,49.80
2023-02-16T02:27:58.541Z,44.00
2023-02-16T02:28:58.565Z,46.20
2023-02-16T02:29:58.542Z,52.70
2023-02-16T02:30:58.591Z,53.20
2023-02-16T02:31:58.605Z,62.20
2023-02-16T02:32:58.474Z,52.60
2023-02-16T02:33:58.483Z,43.80
2023-02-16T02:34:58.449Z,46.40
2023-02-16T02:35:58.442Z,52.60
2023-02-16T02:36:58.425Z,49.70
2023-02-16T02:37:58.417Z,50.40
2023-02-16T02:38:58.414Z,54.00
2023-02-16T02:39:58.383Z,67.50
2023-02-16T02:40:58.370Z,48.10
2023-02-16T02:41:58.359Z,51.00
2023-02-16T02:42:58.369Z,50.00
2023-02-16T02:43:58.353Z,52.10
2023-02-16T02:44:58.324Z,50.60
2023-02-16T02:45:58.303Z,46.30
2023-02-16T02:46:58.302Z,43.30
2023-02-16T02:47:58.280Z,44.10
2023-02-16T02:48:58.293Z,56.50
2023-02-16T02:49:58.253Z,49.70
2023-02-16T02:50:58.245Z,44.40
2023-02-16T02:51:58.230Z,45.90
2023-02-16T02:52:58.219Z,45.80
2023-02-16T02:53:58.241Z,51.50
2023-02-16T02:54:58.192Z,43.40
2023-02-16T02:55:58.180Z,45.50
2023-02-16T02:56:58.171Z,44.50
2023-02-16T02:57:58.159Z,55.80
2023-02-16T02:58:58.164Z,48.20
2023-02-16T02:59:58.150Z,43.80
2023-02-16T03:00:58.151Z,41.60
2023-02-16T03:01:58.147Z,44.90
2023-02-16T03:02:58.096Z,49.10
2023-02-16T03:03:58.092Z,54.80
2023-02-16T03:04:58.088Z,49.70
2023-02-16T03:05:58.060Z,50.10
2023-02-16T03:06:58.045Z,52.30
2023-02-16T03:07:58.032Z,56.00
2023-02-16T03:08:58.017Z,49.20
2023-02-16T03:09:58.020Z,50.00
2023-02-16T03:10:57.990Z,54.60
2023-02-16T03:11:57.974Z,55.20
2023-02-16T03:12:57.964Z,51.70
2023-02-16T03:13:57.958Z,55.10
2023-02-16T03:14:57.983Z,52.80
2023-02-16T03:15:57.965Z,54.30
2023-02-16T03:16:57.914Z,50.80
2023-02-16T03:17:57.903Z,53.10
2023-02-16T03:18:57.890Z,55.60
2023-02-16T03:19:57.888Z,50.80
2023-02-16T03:20:57.861Z,50.80
2023-02-16T03:21:57.856Z,52.10
2023-02-16T03:22:57.839Z,51.80
2023-02-16T03:23:57.822Z,48.20
2023-02-16T03:24:57.820Z,48.70
2023-02-16T03:25:57.796Z,50.90
2023-02-16T03:26:57.789Z,49.50
2023-02-16T03:27:57.781Z,47.40
2023-02-16T03:28:57.764Z,52.80
2023-02-16T03:29:57.803Z,52.50
2023-02-16T03:30:57.769Z,50.70
2023-02-16T03:31:57.820Z,48.50
2023-02-16T03:32:57.706Z,44.40
2023-02-16T03:33:57.691Z,45.20
2023-02-16T03:34:57.688Z,43.70
2023-02-16T03:35:57.665Z,41.30
2023-02-16T03:36:57.648Z,46.50
2023-02-16T03:37:57.635Z,51.30
2023-02-16T03:38:57.626Z,49.10
2023-02-16T03:39:57.630Z,45.20
2023-02-16T03:40:57.599Z,44.10
2023-02-16T03:41:57.586Z,45.60
2023-02-16T03:42:57.573Z,43.40
2023-02-16T03:43:57.562Z,41.70
2023-02-16T03:44:57.561Z,41.50
2023-02-16T03:45:57.593Z,43.10
2023-02-16T03:46:57.544Z,42.90
2023-02-16T03:47:57.508Z,43.20
2023-02-16T03:48:57.495Z,41.30
2023-02-16T03:49:57.496Z,44.00
2023-02-16T03:50:57.473Z,45.40
2023-02-16T03:51:57.455Z,43.70
2023-02-16T03:52:57.442Z,43.40
2023-02-16T03:53:57.427Z,42.70
2023-02-16T03:54:57.434Z,37.80
2023-02-16T03:55:57.403Z,41.00
2023-02-16T03:56:57.424Z,39.90
2023-02-16T03:57:57.376Z,41.80
2023-02-16T03:58:57.368Z,42.40
2023-02-16T03:59:59.275Z,39.40
2023-02-16T04:00:57.338Z,41.30
2023-02-16T04:01:57.332Z,39.10
2023-02-16T04:02:57.345Z,38.60
2023-02-16T04:03:57.417Z,38.90
2023-02-16T04:04:57.296Z,41.00
2023-02-16T04:05:57.292Z,40.30
2023-02-16T04:06:57.262Z,37.10
2023-02-16T04:07:57.249Z,37.20
2023-02-16T04:08:57.240Z,37.80
2023-02-16T04:09:57.229Z,37.60
2023-02-16T04:10:57.228Z,36.00
2023-02-16T04:11:57.205Z,35.90
2023-02-16T04:12:57.187Z,37.40
2023-02-16T04:13:57.175Z,37.20
2023-02-16T04:14:57.162Z,36.20
2023-02-16T04:15:57.161Z,36.30
2023-02-16T04:16:57.137Z,39.20
2023-02-16T04:17:57.137Z,36.60
2023-02-16T04:18:57.136Z,37.60
2023-02-16T04:19:57.105Z,39.10
2023-02-16T04:20:57.107Z,36.10
2023-02-16T04:21:57.072Z,42.20
2023-02-16T04:22:57.068Z,40.60
2023-02-16T04:23:57.050Z,48.00
2023-02-16T04:24:57.036Z,43.30
2023-02-16T04:25:57.043Z,44.10
2023-02-16T04:26:57.016Z,39.80
2023-02-16T04:27:57.002Z,44.70
2023-02-16T04:28:56.989Z,43.40
2023-02-16T04:29:57.010Z,45.50
2023-02-16T04:30:57.135Z,42.00
2023-02-16T04:31:57.095Z,45.60
2023-02-16T04:32:56.935Z,42.80
2023-02-16T04:33:56.923Z,45.10
2023-02-16T04:34:56.929Z,41.20
2023-02-16T04:35:56.928Z,41.80
2023-02-16T04:36:56.887Z,44.70
2023-02-16T04:37:56.871Z,45.00
2023-02-16T04:38:56.858Z,42.80
2023-02-16T04:39:56.842Z,45.80
2023-02-16T04:40:56.860Z,45.70
2023-02-16T04:41:56.816Z,46.50
2023-02-16T04:42:56.805Z,44.90
2023-02-16T04:43:56.790Z,44.40
2023-02-16T04:44:56.787Z,44.10
2023-02-16T04:45:56.849Z,43.80
2023-02-16T04:46:56.763Z,37.90
2023-02-16T04:47:56.753Z,38.90
2023-02-16T04:48:56.738Z,42.70
2023-02-16T04:49:56.719Z,44.70
2023-02-16T04:50:56.738Z,42.20
2023-02-16T04:51:56.704Z,43.00
2023-02-16T04:52:56.682Z,42.30
2023-02-16T04:53:56.682Z,40.70
2023-02-16T04:54:56.660Z,42.00
2023-02-16T04:55:56.658Z,42.40
2023-02-16T04:56:56.631Z,42.00
2023-02-16T04:57:56.631Z,42.30
2023-02-16T04:58:56.611Z,43.20
2023-02-16T04:59:56.596Z,43.20
2023-02-16T05:00:56.606Z,45.40
2023-02-16T05:01:56.659Z,46.20
2023-02-16T05:02:56.565Z,42.10
2023-02-16T05:03:56.541Z,41.50
2023-02-16T05:04:56.530Z,42.30
2023-02-16T05:05:56.546Z,46.60
2023-02-16T05:06:56.523Z,46.00
2023-02-16T05:07:56.496Z,42.70
2023-02-16T05:08:56.482Z,45.40
2023-02-16T05:09:56.465Z,41.70
2023-02-16T05:10:56.471Z,41.80
2023-02-16T05:11:56.445Z,43.70
2023-02-16T05:12:56.434Z,42.30
2023-02-16T05:13:56.453Z,41.50
2023-02-16T05:14:56.411Z,40.30
2023-02-16T05:15:56.485Z,42.10
2023-02-16T05:16:56.378Z,44.90
2023-02-16T05:17:56.367Z,43.80
2023-02-16T05:18:58.708Z,42.40
2023-02-16T05:19:56.345Z,41.60
2023-02-16T05:20:56.385Z,47.50
2023-02-16T05:21:56.318Z,45.90
2023-02-16T05:22:56.335Z,44.90
2023-02-16T05:23:56.295Z,47.90
2023-02-16T05:24:56.279Z,50.00
2023-02-16T05:25:56.282Z,52.60
2023-02-16T05:26:56.248Z,46.00
2023-02-16T05:27:56.252Z,45.30
2023-02-16T05:28:56.226Z,49.10
2023-02-16T05:29:56.288Z,47.90
2023-02-16T05:30:56.268Z,46.00
2023-02-16T05:31:56.245Z,43.90
2023-02-16T05:32:56.214Z,47.80
2023-02-16T05:33:56.236Z,43.60
2023-02-16T05:34:56.164Z,45.20
2023-02-16T05:35:56.164Z,42.70
2023-02-16T05:36:56.139Z,38.30
2023-02-16T05:37:56.120Z,35.10
2023-02-16T05:38:56.117Z,33.40
2023-02-16T05:39:56.098Z,34.20
2023-02-16T05:40:56.096Z,32.80
2023-02-16T05:41:56.073Z,32.30
2023-02-16T05:42:56.051Z,31.60
2023-02-16T05:43:56.064Z,32.80
2023-02-16T05:44:56.020Z,32.70
2023-02-16T05:45:56.098Z,32.90
2023-02-16T05:46:56.010Z,33.30
2023-02-16T05:47:56.002Z,33.30
2023-02-16T05:48:56.006Z,32.70
2023-02-16T05:49:55.960Z,33.20
2023-02-16T05:50:55.947Z,32.90
2023-02-16T05:51:55.955Z,35.20
2023-02-16T05:52:55.917Z,36.50
2023-02-16T05:53:55.914Z,34.90
2023-02-16T05:54:55.917Z,34.70
2023-02-16T05:55:55.881Z,33.70
2023-02-16T05:56:55.886Z,35.30
2023-02-16T05:57:55.864Z,33.10
2023-02-16T05:58:55.852Z,34.60
2023-02-16T05:59:55.840Z,34.80
2023-02-16T06:00:55.816Z,33.60
2023-02-16T06:01:55.818Z,35.00
2023-02-16T06:02:55.892Z,35.00
2023-02-16T06:03:55.850Z,34.30
2023-02-16T06:04:55.776Z,33.00
2023-02-16T06:05:55.752Z,33.80
2023-02-16T06:06:55.796Z,33.90
2023-02-16T06:07:55.736Z,33.80
2023-02-16T06:08:55.708Z,32.00
2023-02-16T06:09:55.697Z,32.90
2023-02-16T06:10:55.818Z,36.10
2023-02-16T06:11:55.699Z,36.80
2023-02-16T06:12:55.662Z,37.10
2023-02-16T06:13:55.648Z,38.70
2023-02-16T06:14:55.639Z,37.00
2023-02-16T06:15:55.678Z,36.10
2023-02-16T06:16:55.624Z,36.50
2023-02-16T06:17:55.597Z,35.90
2023-02-16T06:18:55.587Z,35.80
2023-02-16T06:19:55.572Z,36.90
2023-02-16T06:20:55.558Z,39.30
2023-02-16T06:21:55.569Z,38.10
2023-02-16T06:22:55.530Z,39.50
2023-02-16T06:23:55.543Z,44.80
2023-02-16T06:24:55.520Z,41.80
2023-02-16T06:25:55.496Z,41.80
2023-02-16T06:26:55.528Z,43.90
2023-02-16T06:27:55.477Z,40.50
2023-02-16T06:28:55.457Z,41.70
2023-02-16T06:29:55.499Z,41.40
2023-02-16T06:30:55.489Z,38.00
2023-02-16T06:31:55.661Z,40.50
2023-02-16T06:32:55.437Z,38.60
2023-02-16T06:33:55.401Z,37.40
2023-02-16T06:34:55.384Z,36.50
2023-02-16T06:35:55.372Z,36.20
2023-02-16T06:36:55.438Z,37.20
2023-02-16T06:37:55.344Z,37.90
2023-02-16T06:38:55.337Z,36.50
2023-02-16T06:39:55.330Z,37.50
2023-02-16T06:40:55.306Z,38.80
2023-02-16T06:41:55.307Z,39.90
2023-02-16T06:42:55.307Z,37.00
2023-02-16T06:43:55.278Z,38.50
2023-02-16T06:44:55.256Z,38.30
2023-02-16T06:45:55.246Z,42.90
2023-02-16T06:46:55.334Z,35.70
2023-02-16T06:47:55.217Z,37.30
2023-02-16T06:48:55.208Z,41.70
2023-02-16T06:49:55.201Z,39.00
2023-02-16T06:50:55.186Z,40.20
2023-02-16T06:51:55.199Z,39.50
2023-02-16T06:52:55.158Z,37.80
2023-02-16T06:53:55.158Z,36.70
2023-02-16T06:54:55.130Z,38.80
2023-02-16T06:55:55.121Z,37.80
2023-02-16T06:56:55.123Z,39.10
2023-02-16T06:57:55.097Z,35.90
2023-02-16T06:58:55.214Z,38.30
2023-02-16T06:59:55.070Z,37.40
2023-02-16T07:00:55.143Z,36.30
2023-02-16T07:01:55.084Z,37.10
2023-02-16T07:02:55.061Z,36.30
2023-02-16T07:03:55.021Z,35.70
2023-02-16T07:04:55.006Z,35.80
2023-02-16T07:05:54.997Z,36.10
2023-02-16T07:06:54.994Z,37.90
2023-02-16T07:07:54.969Z,36.70
2023-02-16T07:08:54.958Z,35.30
2023-02-16T07:09:54.947Z,35.50
2023-02-16T07:10:54.937Z,36.10
2023-02-16T07:11:54.951Z,33.10
2023-02-16T07:12:54.905Z,33.20
2023-02-16T07:13:54.903Z,34.90
2023-02-16T07:14:54.921Z,34.50
2023-02-16T07:15:54.895Z,34.90
2023-02-16T07:16:54.855Z,36.20
2023-02-16T07:17:54.858Z,35.10
2023-02-16T07:18:54.825Z,34.70
2023-02-16T07:19:54.814Z,35.10
2023-02-16T07:20:54.798Z,37.00
2023-02-16T07:21:54.789Z,39.20
2023-02-16T07:22:54.790Z,38.20
2023-02-16T07:23:54.771Z,38.10
2023-02-16T07:24:54.751Z,37.80
2023-02-16T07:25:54.746Z,38.00
2023-02-16T07:26:54.730Z,38.50
2023-02-16T07:27:54.734Z,44.10
2023-02-16T07:28:54.723Z,43.90
2023-02-16T07:29:54.784Z,51.70
2023-02-16T07:30:54.818Z,44.70
2023-02-16T07:31:54.806Z,44.50
2023-02-16T07:32:54.660Z,43.10
2023-02-16T07:33:54.631Z,43.40
2023-02-16T07:34:54.622Z,42.20
2023-02-16T07:35:54.609Z,41.90
2023-02-16T07:36:54.600Z,40.70
2023-02-16T07:37:54.608Z,38.90
2023-02-16T07:38:54.571Z,38.80
2023-02-16T07:39:54.554Z,39.20
2023-02-16T07:40:54.543Z,40.30
2023-02-16T07:41:54.529Z,43.40
2023-02-16T07:42:54.523Z,42.60
2023-02-16T07:43:54.524Z,40.70
2023-02-16T07:44:54.492Z,40.00
2023-02-16T07:45:54.631Z,37.00
2023-02-16T07:46:54.577Z,39.50
2023-02-16T07:47:54.456Z,39.60
2023-02-16T07:48:54.473Z,40.20
2023-02-16T07:49:54.426Z,32.80
2023-02-16T07:50:54.414Z,35.80
2023-02-16T07:51:54.399Z,34.70
2023-02-16T07:52:54.384Z,35.00
2023-02-16T07:53:54.390Z,41.30
2023-02-16T07:54:54.361Z,43.60
2023-02-16T07:55:54.376Z,40.60
2023-02-16T07:56:54.343Z,38.00
2023-02-16T07:57:54.333Z,39.70
2023-02-16T07:58:54.331Z,38.40
2023-02-16T07:59:54.304Z,38.50
2023-02-16T08:00:54.278Z,35.80
2023-02-16T08:01:54.451Z,35.00
2023-02-16T08:02:54.492Z,35.30
2023-02-16T08:03:54.257Z,35.60
2023-02-16T08:04:54.249Z,31.30
2023-02-16T08:05:54.215Z,32.00
2023-02-16T08:06:54.202Z,36.60
2023-02-16T08:07:54.193Z,34.80
2023-02-16T08:08:54.189Z,32.50
2023-02-16T08:09:54.168Z,34.70
2023-02-16T08:10:54.146Z,32.10
2023-02-16T08:11:54.140Z,32.90
2023-02-16T08:12:54.122Z,30.90
2023-02-16T08:13:54.147Z,31.40
2023-02-16T08:14:54.102Z,30.80
2023-02-16T08:15:54.089Z,28.80
2023-02-16T08:16:56.336Z,28.80
2023-02-16T08:17:54.065Z,31.20
2023-02-16T08:18:54.091Z,28.20
2023-02-16T08:19:54.039Z,30.10
2023-02-16T08:21:03.890Z,30.60
2023-02-16T08:21:54.015Z,32.10
2023-02-16T08:22:54.000Z,30.30
2023-02-16T08:23:54.004Z,29.00
2023-02-16T08:24:53.980Z,30.50
2023-02-16T08:25:53.964Z,31.10
2023-02-16T08:26:54.024Z,30.80
2023-02-16T08:27:53.939Z,30.90
2023-02-16T08:28:53.943Z,30.60
2023-02-16T08:29:53.958Z,31.40
2023-02-16T08:30:53.994Z,29.60
2023-02-16T08:31:53.954Z,29.80
2023-02-16T08:32:53.872Z,30.20
2023-02-16T08:33:53.880Z,28.60
2023-02-16T08:34:53.868Z,29.90
2023-02-16T08:35:53.840Z,29.30
2023-02-16T08:36:53.820Z,29.70
2023-02-16T08:37:53.807Z,30.30
2023-02-16T08:38:53.809Z,30.40
2023-02-16T08:39:53.797Z,29.50
2023-02-16T08:40:53.770Z,29.50
2023-02-16T08:41:53.760Z,30.90
2023-02-16T08:42:53.744Z,28.50
2023-02-16T08:43:53.750Z,30.50
2023-02-16T08:44:53.780Z,30.20
2023-02-16T08:45:53.764Z,30.70
2023-02-16T08:46:53.692Z,31.60
2023-02-16T08:47:53.685Z,31.10
2023-02-16T08:48:55.811Z,30.50
2023-02-16T08:49:53.653Z,32.10
2023-02-16T08:50:53.983Z,32.20
2023-02-16T08:51:53.625Z,31.10
2023-02-16T08:52:53.614Z,31.90
2023-02-16T08:53:53.606Z,31.30
2023-02-16T08:54:53.599Z,29.60
2023-02-16T08:55:53.573Z,29.00
2023-02-16T08:56:53.562Z,31.90
2023-02-16T08:57:53.548Z,33.30
2023-02-16T08:58:53.534Z,32.90
2023-02-16T08:59:53.538Z,35.40
2023-02-16T09:00:53.527Z,33.30
2023-02-16T09:01:53.494Z,33.50
2023-02-16T09:02:53.491Z,33.50
2023-02-16T09:03:53.482Z,35.50
2023-02-16T09:04:53.478Z,35.70
2023-02-16T09:05:53.445Z,35.10
2023-02-16T09:06:53.450Z,34.50
2023-02-16T09:07:53.421Z,35.70
2023-02-16T09:08:53.403Z,32.80
2023-02-16T09:09:53.412Z,33.00
2023-02-16T09:10:53.378Z,32.50
2023-02-16T09:11:53.369Z,32.20
2023-02-16T09:12:53.357Z,32.60
2023-02-16T09:13:53.350Z,32.90
2023-02-16T09:14:53.341Z,33.10
2023-02-16T09:15:53.320Z,32.90
2023-02-16T09:16:53.324Z,35.30
2023-02-16T09:17:53.290Z,38.50
2023-02-16T09:18:53.275Z,35.90
2023-02-16T09:19:53.279Z,34.90
2023-02-16T09:20:53.253Z,34.60
2023-02-16T09:21:53.247Z,34.30
2023-02-16T09:22:53.251Z,35.90
2023-02-16T09:23:53.219Z,34.40
2023-02-16T09:24:53.217Z,34.80
2023-02-16T09:25:53.186Z,35.00
2023-02-16T09:26:53.181Z,35.10
2023-02-16T09:27:53.175Z,35.10
2023-02-16T09:28:53.149Z,35.00
2023-02-16T09:29:53.198Z,34.30
2023-02-16T09:30:53.178Z,34.20
2023-02-16T09:31:53.136Z,33.80
2023-02-16T09:32:53.096Z,33.50
2023-02-16T09:33:53.082Z,33.10
2023-02-16T09:34:53.086Z,33.60
2023-02-16T09:35:53.053Z,33.30
2023-02-16T09:36:53.054Z,33.90
2023-02-16T09:37:53.035Z,33.10
2023-02-16T09:38:53.041Z,32.60
2023-02-16T09:39:53.032Z,32.80
2023-02-16T09:40:52.993Z,31.10
2023-02-16T09:41:52.982Z,32.20
2023-02-16T09:42:52.971Z,31.30
2023-02-16T09:43:52.953Z,32.90
2023-02-16T09:44:52.957Z,31.80
2023-02-16T09:45:52.967Z,31.70
2023-02-16T09:46:52.922Z,32.30
2023-02-16T09:47:52.916Z,32.00
2023-02-16T09:48:52.893Z,31.30
2023-02-16T09:49:52.898Z,31.30
2023-02-16T09:50:54.586Z,33.80
2023-02-16T09:51:52.850Z,34.70
2023-02-16T09:52:52.849Z,34.00
2023-02-16T09:53:52.834Z,33.70
2023-02-16T09:54:52.854Z,33.90
2023-02-16T09:55:52.802Z,33.40
2023-02-16T09:56:52.787Z,34.10
2023-02-16T09:57:52.780Z,33.30
2023-02-16T09:58:52.761Z,33.70
2023-02-16T09:59:52.760Z,32.60
2023-02-16T10:00:52.732Z,32.50
2023-02-16T10:01:52.718Z,31.40
2023-02-16T10:02:52.710Z,31.00
2023-02-16T10:03:52.709Z,30.50
2023-02-16T10:04:52.695Z,30.10
2023-02-16T10:05:52.666Z,30.80
2023-02-16T10:06:52.658Z,31.20
2023-02-16T10:07:52.674Z,30.60
2023-02-16T10:08:52.687Z,30.20
2023-02-16T10:09:52.612Z,30.50
2023-02-16T10:10:52.661Z,32.50
2023-02-16T10:11:52.590Z,30.90
2023-02-16T10:12:52.583Z,31.10
2023-02-16T10:13:52.575Z,31.10
2023-02-16T10:14:52.551Z,30.70
2023-02-16T10:15:54.094Z,31.80
2023-02-16T10:16:52.527Z,29.40
2023-02-16T10:17:52.522Z,30.10
2023-02-16T10:18:52.502Z,30.10
2023-02-16T10:19:52.485Z,30.80
2023-02-16T10:20:52.493Z,31.70
2023-02-16T10:21:52.479Z,30.90
2023-02-16T10:22:52.449Z,32.60
2023-02-16T10:23:52.444Z,31.60
2023-02-16T10:24:52.424Z,31.10
2023-02-16T10:25:52.422Z,30.90
2023-02-16T10:26:52.423Z,32.30
2023-02-16T10:27:52.390Z,32.00
2023-02-16T10:28:52.378Z,31.20
2023-02-16T10:29:52.484Z,31.00
2023-02-16T10:30:52.486Z,31.80
2023-02-16T10:31:52.397Z,31.30
2023-02-16T10:32:52.324Z,31.60
2023-02-16T10:33:52.337Z,31.90
2023-02-16T10:34:52.302Z,32.30
2023-02-16T10:35:52.310Z,31.70
2023-02-16T10:36:52.271Z,32.00
2023-02-16T10:37:52.262Z,32.80
2023-02-16T10:38:52.253Z,31.80
2023-02-16T10:39:52.235Z,32.40
2023-02-16T10:40:52.237Z,31.30
2023-02-16T10:41:52.208Z,31.40
2023-02-16T10:42:52.263Z,31.30
2023-02-16T10:43:52.193Z,31.70
2023-02-16T10:44:52.190Z,31.70
2023-02-16T10:45:52.775Z,31.90
2023-02-16T10:46:52.149Z,30.80
2023-02-16T10:47:52.131Z,30.60
2023-02-16T10:48:52.130Z,30.20
2023-02-16T10:49:52.109Z,29.60
2023-02-16T10:50:52.108Z,30.30
2023-02-16T10:51:52.077Z,30.40
2023-02-16T10:52:52.071Z,30.30
2023-02-16T10:53:52.060Z,30.20
2023-02-16T10:54:52.045Z,29.80
2023-02-16T10:55:52.042Z,29.50
2023-02-16T10:56:52.011Z,29.30
2023-02-16T10:57:51.999Z,30.90
2023-02-16T10:58:52.008Z,30.70
2023-02-16T10:59:51.984Z,31.80
2023-02-16T11:00:51.972Z,31.70
2023-02-16T11:01:51.974Z,31.80
2023-02-16T11:02:51.934Z,30.70
2023-02-16T11:03:51.940Z,31.20
2023-02-16T11:04:51.920Z,30.70
2023-02-16T11:05:51.913Z,30.60
2023-02-16T11:06:51.879Z,30.10
2023-02-16T11:07:51.885Z,31.00
2023-02-16T11:08:51.866Z,29.90
2023-02-16T11:09:51.846Z,29.10
2023-02-16T11:10:51.848Z,29.30
2023-02-16T11:11:51.829Z,28.60
2023-02-16T11:12:51.806Z,29.10
2023-02-16T11:13:51.790Z,27.80
2023-02-16T11:14:51.808Z,28.30
2023-02-16T11:15:51.785Z,26.90
2023-02-16T11:16:51.764Z,27.60
2023-02-16T11:17:51.735Z,27.60
2023-02-16T11:18:51.728Z,29.50
2023-02-16T11:19:51.717Z,29.30
2023-02-16T11:20:51.704Z,29.10
2023-02-16T11:21:51.711Z,29.90
2023-02-16T11:22:51.683Z,29.60
2023-02-16T11:23:51.662Z,28.50
2023-02-16T11:24:51.649Z,28.80
2023-02-16T11:25:51.632Z,28.60
2023-02-16T11:26:51.632Z,27.90
2023-02-16T11:27:51.608Z,28.20
2023-02-16T11:28:51.600Z,28.70
2023-02-16T11:29:51.582Z,27.80
2023-02-16T11:30:51.682Z,28.20
2023-02-16T11:31:51.723Z,28.60
2023-02-16T11:32:51.548Z,28.20
2023-02-16T11:33:51.535Z,28.30
2023-02-16T11:34:51.519Z,28.40
2023-02-16T11:35:51.503Z,27.40
2023-02-16T11:36:51.502Z,26.40
2023-02-16T11:37:51.471Z,27.20
2023-02-16T11:38:51.464Z,27.30
2023-02-16T11:39:51.454Z,27.90
2023-02-16T11:40:51.434Z,27.70
2023-02-16T11:41:51.440Z,27.20
2023-02-16T11:42:51.411Z,26.70
2023-02-16T11:43:51.395Z,26.80
2023-02-16T11:44:51.390Z,27.70
2023-02-16T11:45:51.642Z,28.40
2023-02-16T11:46:51.421Z,26.80
2023-02-16T11:47:51.334Z,26.70
2023-02-16T11:48:51.324Z,26.90
2023-02-16T11:49:51.551Z,27.50
2023-02-16T11:50:52.249Z,26.60
2023-02-16T11:51:51.299Z,27.80
2023-02-16T11:52:51.269Z,27.70
2023-02-16T11:53:51.249Z,26.40
2023-02-16T11:54:51.240Z,27.90
2023-02-16T11:55:51.234Z,27.40
2023-02-16T11:56:51.289Z,27.80
2023-02-16T11:57:51.210Z,28.10
2023-02-16T11:58:51.188Z,27.10
2023-02-16T11:59:51.169Z,28.10
2023-02-16T12:00:51.157Z,27.50
2023-02-16T12:01:51.169Z,27.40
2023-02-16T12:02:51.149Z,27.40
2023-02-16T12:03:51.178Z,29.00
2023-02-16T12:04:51.284Z,27.40
2023-02-16T12:05:51.091Z,28.30
2023-02-16T12:06:51.097Z,27.70
2023-02-16T12:07:51.073Z,27.00
2023-02-16T12:08:51.052Z,27.40
2023-02-16T12:09:51.045Z,27.60
2023-02-16T12:10:51.032Z,29.10
2023-02-16T12:11:51.029Z,28.10
2023-02-16T12:12:50.998Z,27.50
2023-02-16T12:13:50.994Z,27.50
2023-02-16T12:14:50.983Z,26.60
2023-02-16T12:15:51.098Z,26.60
2023-02-16T12:16:50.967Z,27.20
2023-02-16T12:17:50.930Z,28.00
2023-02-16T12:18:50.945Z,26.50
2023-02-16T12:19:50.906Z,26.00
2023-02-16T12:20:50.894Z,26.30
2023-02-16T12:21:50.895Z,26.90
2023-02-16T12:22:50.865Z,26.90
2023-02-16T12:23:50.853Z,26.30
2023-02-16T12:24:50.843Z,26.30
2023-02-16T12:25:50.824Z,26.30
2023-02-16T12:26:50.842Z,25.40
2023-02-16T12:27:50.798Z,25.60
2023-02-16T12:28:50.811Z,26.50
2023-02-16T12:29:50.780Z,26.20
2023-02-16T12:30:50.808Z,25.70
2023-02-16T12:31:50.779Z,25.40
2023-02-16T12:32:50.752Z,26.60
2023-02-16T12:33:50.722Z,26.20
2023-02-16T12:34:50.726Z,25.60
2023-02-16T12:35:50.696Z,26.20
2023-02-16T12:36:50.680Z,26.40
2023-02-16T12:37:50.682Z,26.50
2023-02-16T12:38:50.661Z,26.50
2023-02-16T12:39:50.638Z,26.60
2023-02-16T12:40:50.661Z,26.20
2023-02-16T12:41:50.613Z,26.80
2023-02-16T12:42:50.612Z,26.20
2023-02-16T12:43:50.580Z,26.00
2023-02-16T12:44:50.610Z,26.10
2023-02-16T12:45:50.587Z,25.80
2023-02-16T12:46:50.540Z,25.70
2023-02-16T12:47:50.546Z,27.30
2023-02-16T12:48:50.521Z,27.10
2023-02-16T12:49:50.500Z,25.80
2023-02-16T12:50:50.506Z,28.30
2023-02-16T12:51:50.479Z,27.40